createdAt,value
2022-10-28T00:01:47.184Z,100044.66
2022-10-28T00:04:14.562Z,100032.00
2022-10-28T00:06:43.268Z,100037.06
2022-10-28T00:09:12.261Z,100037.97
2022-10-28T00:11:39.783Z,100039.69
2022-10-28T00:14:07.923Z,100033.66
2022-10-28T00:16:37.292Z,100043.75
2022-10-28T00:19:06.489Z,100052.16
2022-10-28T00:21:36.485Z,100032.75
2022-10-28T00:24:06.788Z,100027.84
2022-10-28T00:26:36.600Z,100031.47
2022-10-28T00:29:06.329Z,100035.81
2022-10-28T00:31:34.948Z,100025.16
2022-10-28T00:34:05.009Z,100024.53
2022-10-28T00:36:34.513Z,100048.63
2022-10-28T00:39:04.849Z,100048.44
2022-10-28T00:41:35.093Z,100035.09
2022-10-28T00:44:18.967Z,100031.28
2022-10-28T00:46:49.341Z,100033.72
2022-10-28T00:49:21.347Z,100031.28
2022-10-28T00:51:53.507Z,100028.22
2022-10-28T00:54:23.997Z,100034.19
2022-10-28T00:56:53.710Z,100023.16
2022-10-28T00:59:27.321Z,100029.31
2022-10-28T01:01:55.056Z,100020.75
2022-10-28T01:04:23.137Z,100017.41
2022-10-28T01:06:50.809Z,100031.47
2022-10-28T01:09:18.170Z,100032.75
2022-10-28T01:12:09.457Z,100037.25
2022-10-28T01:14:51.460Z,100029.72
2022-10-28T01:17:36.580Z,100004.28
2022-10-28T01:20:48.324Z,100020.09
2022-10-28T01:23:22.034Z,100023.41
2022-10-28T01:26:23.943Z,100024.22
2022-10-28T01:29:11.994Z,100022.78
2022-10-28T01:31:46.342Z,100025.94
2022-10-28T01:34:22.173Z,100036.69
2022-10-28T01:36:58.009Z,100033.97
2022-10-28T01:39:32.831Z,100030.03
2022-10-28T01:42:08.726Z,100027.84
2022-10-28T01:44:43.692Z,100025.31
2022-10-28T01:47:16.339Z,100025.41
2022-10-28T01:49:52.440Z,100033.72
2022-10-28T01:52:23.653Z,100025.41
2022-10-28T01:55:02.386Z,100020.88
2022-10-28T01:57:31.849Z,100017.19
2022-10-28T02:00:00.907Z,100014.66
2022-10-28T02:02:33.249Z,100011.75
2022-10-28T02:05:22.687Z,100010.66
2022-10-28T02:07:54.355Z,100013.59
2022-10-28T02:10:33.079Z,100017.81
2022-10-28T02:13:07.861Z,100012.75
2022-10-28T02:15:46.916Z,100022.69
2022-10-28T02:18:27.312Z,100031.91
2022-10-28T02:21:00.497Z,100028.09
2022-10-28T02:23:38.811Z,100025.84
2022-10-28T02:26:13.068Z,100024.69
2022-10-28T02:28:47.999Z,100023.69
2022-10-28T02:31:22.845Z,100016.19
2022-10-28T02:33:55.788Z,100006.69
2022-10-28T02:36:24.811Z,100018.63
2022-10-28T02:38:55.148Z,100025.22
2022-10-28T02:41:27.149Z,100014.28
2022-10-28T02:43:59.496Z,100022.47
2022-10-28T02:46:29.825Z,100019.13
2022-10-28T02:49:03.149Z,100025.75
2022-10-28T02:51:35.478Z,100028.00
2022-10-28T02:54:09.217Z,100022.66
2022-10-28T02:56:40.781Z,100013.13
2022-10-28T02:59:11.326Z,100016.78
2022-10-28T03:01:39.295Z,100022.56
2022-10-28T03:04:08.412Z,100017.66
2022-10-28T03:06:35.820Z,100024.28
2022-10-28T03:09:03.568Z,100022.72
2022-10-28T03:11:30.911Z,100033.38
2022-10-28T03:13:58.114Z,100034.09
2022-10-28T03:16:28.243Z,100030.69
2022-10-28T03:18:55.944Z,100025.63
2022-10-28T03:21:24.618Z,100028.84
2022-10-28T03:23:51.944Z,100025.41
2022-10-28T03:26:19.368Z,100012.06
2022-10-28T03:28:47.062Z,100025.63
2022-10-28T03:31:15.342Z,100019.53
2022-10-28T03:33:42.660Z,100011.88
2022-10-28T03:36:10.035Z,100018.72
2022-10-28T03:38:38.623Z,100032.47
2022-10-28T03:41:06.182Z,100032.31
2022-10-28T03:43:33.403Z,100025.00
2022-10-28T03:46:00.643Z,100025.16
2022-10-28T03:48:27.987Z,100016.88
2022-10-28T03:50:55.386Z,100010.38
2022-10-28T03:53:25.251Z,100009.84
2022-10-28T03:55:59.347Z,99992.34
2022-10-28T03:58:27.627Z,100000.13
2022-10-28T04:00:55.930Z,100004.44
2022-10-28T04:03:24.707Z,100006.91
2022-10-28T04:05:52.059Z,100018.44
2022-10-28T04:08:20.462Z,100004.41
2022-10-28T04:10:47.882Z,100013.81
2022-10-28T04:13:17.450Z,100014.63
2022-10-28T04:15:44.742Z,100009.38
2022-10-28T04:18:12.411Z,99997.44
2022-10-28T04:20:40.189Z,99994.00
2022-10-28T04:23:08.583Z,99985.00
2022-10-28T04:25:35.815Z,99990.94
2022-10-28T04:28:03.382Z,99989.69
2022-10-28T04:30:32.251Z,100002.31
2022-10-28T04:32:59.547Z,100007.00
2022-10-28T04:35:27.002Z,100004.00
2022-10-28T04:37:54.369Z,100002.19
2022-10-28T04:40:21.756Z,100006.22
2022-10-28T04:42:48.906Z,99996.19
2022-10-28T04:45:16.454Z,99984.66
2022-10-28T04:47:45.107Z,99992.69
2022-10-28T04:50:12.320Z,99991.78
2022-10-28T04:52:39.468Z,99992.47
2022-10-28T04:55:07.245Z,99991.34
2022-10-28T04:57:34.517Z,99993.00
2022-10-28T05:00:01.721Z,99992.09
2022-10-28T05:02:31.998Z,99997.66
2022-10-28T05:05:03.680Z,100000.94
2022-10-28T05:07:31.566Z,99990.38
2022-10-28T05:09:58.949Z,100001.44
2022-10-28T05:12:26.116Z,100009.44
2022-10-28T05:14:53.380Z,100007.44
2022-10-28T05:17:20.718Z,99998.41
2022-10-28T05:19:48.088Z,99997.59
2022-10-28T05:22:16.900Z,99998.41
2022-10-28T05:24:44.116Z,99997.50
2022-10-28T05:27:12.928Z,99996.47
2022-10-28T05:29:40.050Z,99999.34
2022-10-28T05:32:07.387Z,99995.19
2022-10-28T05:34:34.995Z,100000.16
2022-10-28T05:37:02.341Z,100001.69
2022-10-28T05:39:31.045Z,100002.19
2022-10-28T05:41:58.429Z,99993.78
2022-10-28T05:44:25.801Z,100006.47
2022-10-28T05:46:54.271Z,100010.59
2022-10-28T05:49:21.643Z,100018.91
2022-10-28T05:51:49.036Z,100009.81
2022-10-28T05:54:16.512Z,100005.44
2022-10-28T05:56:45.119Z,100014.84
2022-10-28T05:59:12.384Z,100016.66
2022-10-28T06:01:39.997Z,100006.03
2022-10-28T06:04:07.290Z,100011.81
2022-10-28T06:06:34.531Z,100009.56
2022-10-28T06:09:01.823Z,100007.94
2022-10-28T06:11:27.641Z,100000.16
2022-10-28T06:13:56.428Z,100005.63
2022-10-28T06:16:23.898Z,100001.28
2022-10-28T06:18:51.512Z,100001.81
2022-10-28T06:21:18.820Z,100000.47
2022-10-28T06:23:46.932Z,100002.00
2022-10-28T06:26:14.097Z,100000.47
2022-10-28T06:28:42.300Z,100000.97
2022-10-28T06:31:10.925Z,100001.69
2022-10-28T06:33:38.290Z,99989.75
2022-10-28T06:36:06.458Z,99992.81
2022-10-28T06:38:33.698Z,99993.72
2022-10-28T06:41:01.149Z,99992.09
2022-10-28T06:43:28.542Z,99994.00
2022-10-28T06:45:59.304Z,99993.19
2022-10-28T06:48:29.955Z,99991.56
2022-10-28T06:50:58.205Z,99990.66
2022-10-28T06:53:25.533Z,99997.25
2022-10-28T06:55:53.731Z,99991.34
2022-10-28T06:58:21.360Z,99997.25
2022-10-28T07:00:48.785Z,99991.34
2022-10-28T07:03:16.706Z,99993.81
2022-10-28T07:05:46.039Z,99992.00
2022-10-28T07:08:14.569Z,99987.75
2022-10-28T07:10:42.361Z,99980.44
2022-10-28T07:13:09.528Z,99981.84
2022-10-28T07:15:36.676Z,99989.63
2022-10-28T07:18:04.116Z,99986.50
2022-10-28T07:20:33.095Z,99978.81
2022-10-28T07:23:02.911Z,99978.28
2022-10-28T07:25:31.280Z,99965.38
2022-10-28T07:27:58.857Z,99969.84
2022-10-28T07:30:26.258Z,99963.53
2022-10-28T07:32:54.392Z,99965.75
2022-10-28T07:35:21.907Z,99970.53
2022-10-28T07:37:49.464Z,99975.47
2022-10-28T07:40:18.870Z,99971.81
2022-10-28T07:42:46.166Z,99971.53
2022-10-28T07:45:13.717Z,99966.81
2022-10-28T07:47:41.311Z,99969.84
2022-10-28T07:50:10.209Z,99979.47
2022-10-28T07:52:38.205Z,99973.94
2022-10-28T07:55:07.860Z,99974.34
2022-10-28T07:57:36.957Z,99972.50
2022-10-28T08:00:06.791Z,99965.81
2022-10-28T08:02:40.313Z,99964.25
2022-10-28T08:05:08.266Z,99977.91
2022-10-28T08:07:38.459Z,99975.41
2022-10-28T08:10:07.872Z,99975.19
2022-10-28T08:12:36.620Z,99967.63
2022-10-28T08:15:04.558Z,99961.50
2022-10-28T08:17:32.215Z,99960.25
2022-10-28T08:19:59.470Z,99964.97
2022-10-28T08:22:26.873Z,99966.25
2022-10-28T08:24:54.336Z,99966.84
2022-10-28T08:27:21.850Z,99969.50
2022-10-28T08:29:50.525Z,99966.75
2022-10-28T08:32:17.897Z,99960.94
2022-10-28T08:34:45.142Z,99975.28
2022-10-28T08:37:12.495Z,99969.28
2022-10-28T08:39:39.914Z,99967.31
2022-10-28T08:42:24.410Z,99965.84
2022-10-28T08:45:03.317Z,99964.72
2022-10-28T08:47:43.033Z,99971.09
2022-10-28T08:50:14.556Z,99973.41
2022-10-28T08:52:46.623Z,99964.03
2022-10-28T08:55:19.008Z,99966.25
2022-10-28T08:57:51.088Z,99963.13
2022-10-28T09:00:23.416Z,99962.06
2022-10-28T09:03:03.970Z,99964.16
2022-10-28T09:05:31.372Z,99952.94
2022-10-28T09:07:59.255Z,99951.91
2022-10-28T09:10:44.907Z,99949.03
2022-10-28T09:13:17.893Z,99950.41
2022-10-28T09:15:55.925Z,99946.72
2022-10-28T09:18:37.268Z,99945.34
2022-10-28T09:21:13.274Z,99938.16
2022-10-28T09:23:46.621Z,99932.84
2022-10-28T09:26:20.815Z,99929.16
2022-10-28T09:29:00.530Z,99932.28
2022-10-28T09:31:35.926Z,99928.91
2022-10-28T09:34:17.796Z,99932.47
2022-10-28T09:36:50.064Z,99925.00
2022-10-28T09:39:37.942Z,99924.50
2022-10-28T09:42:05.639Z,99918.47
2022-10-28T09:44:41.509Z,99902.28
2022-10-28T09:47:17.188Z,99897.16
2022-10-28T09:49:47.781Z,99902.66
2022-10-28T09:52:19.640Z,99904.69
2022-10-28T09:54:50.721Z,99891.66
2022-10-28T09:57:18.582Z,99899.25
2022-10-28T09:59:46.344Z,99898.97
2022-10-28T10:02:27.500Z,99892.81
2022-10-28T10:04:56.048Z,99892.59
2022-10-28T10:07:31.973Z,99889.97
2022-10-28T10:10:01.439Z,99888.72
2022-10-28T10:12:33.554Z,99893.13
2022-10-28T10:15:02.495Z,99886.56
2022-10-28T10:17:39.350Z,99892.75
2022-10-28T10:20:08.304Z,99888.19
2022-10-28T10:22:37.377Z,99888.41
2022-10-28T10:25:30.010Z,99892.84
2022-10-28T10:28:01.155Z,99883.88
2022-10-28T10:30:33.235Z,99877.47
2022-10-28T10:33:03.239Z,99887.28
2022-10-28T10:35:32.377Z,99880.59
2022-10-28T10:38:02.059Z,99876.97
2022-10-28T10:40:33.750Z,99873.69
2022-10-28T10:43:22.392Z,99861.09
2022-10-28T10:45:52.939Z,99869.28
2022-10-28T10:48:22.044Z,99861.38
2022-10-28T10:50:50.879Z,99860.63
2022-10-28T10:53:24.597Z,99849.50
2022-10-28T10:55:55.257Z,99861.31
2022-10-28T10:58:25.339Z,99849.25
2022-10-28T11:00:55.113Z,99868.56
2022-10-28T11:03:28.436Z,99854.91
2022-10-28T11:08:45.613Z,99854.00
2022-10-28T11:11:18.816Z,99847.84
2022-10-28T11:13:47.239Z,99852.56
2022-10-28T11:16:19.452Z,99835.38
2022-10-28T11:18:49.837Z,99849.56
2022-10-28T11:21:49.440Z,99844.25
2022-10-28T11:24:43.613Z,99850.00
2022-10-28T11:27:23.784Z,99837.25
2022-10-28T11:29:51.442Z,99843.97
2022-10-28T11:32:32.242Z,99834.19
2022-10-28T11:35:47.208Z,99833.69
2022-10-28T11:38:45.417Z,99832.09
2022-10-28T11:41:23.212Z,99823.09
2022-10-28T11:43:55.269Z,99821.78
2022-10-28T11:46:42.763Z,99820.16
2022-10-28T11:49:41.400Z,99830.50
2022-10-28T11:52:23.014Z,99823.00
2022-10-28T11:55:03.805Z,99826.38
2022-10-28T11:57:40.869Z,99822.19
2022-10-28T12:00:28.009Z,99824.19
2022-10-28T12:03:12.853Z,99820.72
2022-10-28T12:05:47.270Z,99823.94
2022-10-28T12:08:32.957Z,99813.63
2022-10-28T12:11:10.841Z,99809.97
2022-10-28T12:13:48.005Z,99818.03
2022-10-28T12:16:22.176Z,99816.28
2022-10-28T12:18:54.883Z,99808.88
2022-10-28T12:21:29.111Z,99809.69
2022-10-28T12:23:58.590Z,99815.59
2022-10-28T12:26:35.213Z,99807.41
2022-10-28T12:29:05.445Z,99809.44
2022-10-28T12:31:38.218Z,99804.19
2022-10-28T12:34:11.773Z,99807.28
2022-10-28T12:36:43.589Z,99813.31
2022-10-28T12:39:18.703Z,99794.22
2022-10-28T12:41:56.509Z,99813.16
2022-10-28T12:44:26.327Z,99793.44
2022-10-28T12:47:01.867Z,99783.50
2022-10-28T12:49:39.919Z,99783.22
2022-10-28T12:52:18.083Z,99805.66
2022-10-28T12:54:55.684Z,99797.84
2022-10-28T12:57:25.772Z,99809.41
2022-10-28T12:59:59.027Z,99802.69
2022-10-28T13:02:31.565Z,99789.00
2022-10-28T13:04:59.304Z,99784.56
2022-10-28T13:08:03.233Z,99792.75
2022-10-28T13:10:40.508Z,99792.91
2022-10-28T13:13:24.702Z,99786.88
2022-10-28T13:16:03.537Z,99796.13
2022-10-28T13:19:05.996Z,99798.13
2022-10-28T13:21:54.256Z,99802.19
2022-10-28T13:24:29.666Z,99795.16
2022-10-28T13:26:57.660Z,99790.06
2022-10-28T13:29:29.444Z,99785.78
2022-10-28T13:31:57.122Z,99784.16
2022-10-28T13:34:32.221Z,99770.06
2022-10-28T13:37:03.540Z,99777.09
2022-10-28T13:39:43.579Z,99786.59
2022-10-28T13:42:32.655Z,99793.03
2022-10-28T13:45:03.623Z,99778.53
2022-10-28T13:47:33.341Z,99773.44
2022-10-28T13:50:40.674Z,99781.59
2022-10-28T13:53:52.138Z,99779.22
2022-10-28T13:56:29.967Z,99781.91
2022-10-28T13:59:00.006Z,99777.19
2022-10-28T14:01:56.741Z,99771.97
2022-10-28T14:04:37.996Z,99773.03
2022-10-28T14:07:21.856Z,99766.59
2022-10-28T14:09:53.690Z,99763.91
2022-10-28T14:12:27.798Z,99764.03
2022-10-28T14:15:05.063Z,99769.66
2022-10-28T14:17:39.388Z,99766.06
2022-10-28T14:20:24.855Z,99757.59
2022-10-28T14:22:53.305Z,99759.47
2022-10-28T14:25:59.907Z,99760.16
2022-10-28T14:28:54.710Z,99763.13
2022-10-28T14:31:40.930Z,99762.72
2022-10-28T14:34:34.302Z,99760.00
2022-10-28T14:37:19.035Z,99757.34
2022-10-28T14:40:02.472Z,99768.34
2022-10-28T14:42:45.997Z,99760.28
2022-10-28T14:45:26.857Z,99757.31
2022-10-28T14:48:17.765Z,99744.53
2022-10-28T14:50:48.156Z,99742.63
2022-10-28T14:53:20.579Z,99756.94
2022-10-28T14:55:51.147Z,99753.75
2022-10-28T14:58:21.819Z,99752.63
2022-10-28T15:01:00.748Z,99742.94
2022-10-28T15:03:27.886Z,99744.56
2022-10-28T15:05:56.588Z,99747.13
2022-10-28T15:08:24.792Z,99745.66
2022-10-28T15:10:52.357Z,99742.94
2022-10-28T15:13:20.399Z,99737.84
2022-10-28T15:15:57.365Z,99743.91
2022-10-28T15:18:26.781Z,99732.91
2022-10-28T15:21:10.315Z,99738.81
2022-10-28T15:23:37.806Z,99730.38
2022-10-28T15:26:06.054Z,99729.13
2022-10-28T15:28:33.614Z,99733.66
2022-10-28T15:31:00.990Z,99726.56
2022-10-28T15:33:30.971Z,99717.28
2022-10-28T15:36:17.592Z,99735.13
2022-10-28T15:38:46.572Z,99730.84
2022-10-28T15:41:43.311Z,99736.84
2022-10-28T15:44:32.625Z,99731.50
2022-10-28T15:47:02.546Z,99727.38
2022-10-28T15:49:36.138Z,99725.47
2022-10-28T15:52:35.559Z,99717.84
2022-10-28T15:55:26.776Z,99709.66
2022-10-28T15:58:24.072Z,99714.88
2022-10-28T16:00:52.743Z,99714.88
2022-10-28T16:03:26.308Z,99718.75
2022-10-28T16:05:55.728Z,99709.41
2022-10-28T16:08:27.195Z,99711.00
2022-10-28T16:11:00.680Z,99699.91
2022-10-28T16:13:31.730Z,99709.53
2022-10-28T16:16:03.402Z,99712.09
2022-10-28T16:18:34.978Z,99711.41
2022-10-28T16:21:04.968Z,99703.75
2022-10-28T16:23:39.541Z,99708.84
2022-10-28T16:26:09.403Z,99707.91
2022-10-28T16:28:38.033Z,99714.63
2022-10-28T16:31:05.982Z,99713.00
2022-10-28T16:33:35.261Z,99716.38
2022-10-28T16:36:03.262Z,99714.47
2022-10-28T16:38:31.451Z,99709.16
2022-10-28T16:41:01.172Z,99701.63
2022-10-28T16:43:29.855Z,99702.06
2022-10-28T16:45:58.779Z,99697.09
2022-10-28T16:48:28.486Z,99699.50
2022-10-28T16:50:59.260Z,99696.69
2022-10-28T16:53:26.592Z,99695.78
2022-10-28T16:55:59.279Z,99699.50
2022-10-28T16:58:29.334Z,99680.75
2022-10-28T17:00:56.952Z,99679.56
2022-10-28T17:03:24.408Z,99682.81
2022-10-28T17:05:51.918Z,99679.69
2022-10-28T17:08:36.124Z,99673.53
2022-10-28T17:11:06.582Z,99677.56
2022-10-28T17:13:35.616Z,99680.25
2022-10-28T17:16:02.850Z,99676.91
2022-10-28T17:18:30.250Z,99676.75
2022-10-28T17:21:01.302Z,99670.06
2022-10-28T17:23:29.206Z,99672.63
2022-10-28T17:25:57.196Z,99665.75
2022-10-28T17:28:24.667Z,99661.75
2022-10-28T17:30:53.985Z,99674.63
2022-10-28T17:33:21.344Z,99672.50
2022-10-28T17:35:49.081Z,99668.31
2022-10-28T17:38:16.618Z,99669.00
2022-10-28T17:40:44.130Z,99663.91
2022-10-28T17:43:11.799Z,99667.16
2022-10-28T17:45:39.385Z,99668.50
2022-10-28T17:48:08.286Z,99657.91
2022-10-28T17:50:35.748Z,99658.31
2022-10-28T17:53:03.138Z,99656.41
2022-10-28T17:55:30.468Z,99658.31
2022-10-28T17:57:58.111Z,99655.75
2022-10-28T18:00:25.945Z,99666.34
2022-10-28T18:02:55.522Z,99653.31
2022-10-28T18:05:24.467Z,99655.19
2022-10-28T18:07:55.246Z,99653.59
2022-10-28T18:10:22.750Z,99655.34
2022-10-28T18:12:51.066Z,99665.78
2022-10-28T18:15:18.294Z,99656.97
2022-10-28T18:17:49.444Z,99654.00
2022-10-28T18:20:16.901Z,99654.25
2022-10-28T18:22:45.513Z,99650.22
2022-10-28T18:25:12.849Z,99650.88
2022-10-28T18:27:41.376Z,99657.72
2022-10-28T18:30:09.801Z,99644.88
2022-10-28T18:32:37.002Z,99654.00
2022-10-28T18:35:04.818Z,99650.50
2022-10-28T18:37:32.146Z,99649.44
2022-10-28T18:40:00.866Z,99647.31
2022-10-28T18:42:29.212Z,99643.53
2022-10-28T18:44:58.761Z,99646.47
2022-10-28T18:47:26.193Z,99647.28
2022-10-28T18:49:54.523Z,99628.78
2022-10-28T18:52:21.814Z,99634.97
2022-10-28T18:54:49.225Z,99641.00
2022-10-28T18:57:19.362Z,99634.28
2022-10-28T19:00:16.763Z,99639.53
2022-10-28T19:02:33.845Z,99628.53
2022-10-28T19:05:01.192Z,99632.81
2022-10-28T19:07:29.749Z,99631.09
2022-10-28T19:09:56.986Z,99634.28
2022-10-28T19:12:25.651Z,99630.69
2022-10-28T19:14:52.982Z,99631.63
2022-10-28T19:17:20.359Z,99619.81
2022-10-28T19:19:49.269Z,99630.69
2022-10-28T19:22:16.557Z,99638.44
2022-10-28T19:24:43.972Z,99625.44
2022-10-28T19:27:12.171Z,99628.00
2022-10-28T19:29:40.915Z,99622.91
2022-10-28T19:32:08.295Z,99622.66
2022-10-28T19:34:35.529Z,99614.06
2022-10-28T19:37:02.815Z,99627.75
2022-10-28T19:39:30.153Z,99627.22
2022-10-28T19:41:57.901Z,99620.63
2022-10-28T19:44:25.162Z,99621.44
2022-10-28T19:46:53.744Z,99620.50
2022-10-28T19:49:23.832Z,99619.31
2022-10-28T19:51:53.464Z,99622.13
2022-10-28T19:54:20.825Z,99621.56
2022-10-28T19:56:49.202Z,99620.66
2022-10-28T19:59:16.978Z,99621.56
2022-10-28T20:01:44.489Z,99609.00
2022-10-28T20:04:13.220Z,99623.19
2022-10-28T20:06:41.101Z,99617.28
2022-10-28T20:09:08.649Z,99610.56
2022-10-28T20:11:38.248Z,99605.25
2022-10-28T20:14:09.052Z,99608.72
2022-10-28T20:16:36.786Z,99603.34
2022-10-28T20:19:04.324Z,99601.59
2022-10-28T20:21:34.396Z,99609.25
2022-10-28T20:24:04.409Z,99607.66
2022-10-28T20:26:34.293Z,99589.41
2022-10-28T20:29:03.143Z,99603.63
2022-10-28T20:31:31.902Z,99598.66
2022-10-28T20:34:01.655Z,99592.78
2022-10-28T20:36:30.333Z,99585.78
2022-10-28T20:39:01.269Z,99577.88
2022-10-28T20:41:30.617Z,99591.81
2022-10-28T20:43:58.432Z,99589.94
2022-10-28T20:46:26.963Z,99588.72
2022-10-28T20:48:54.425Z,99574.38
2022-10-28T20:51:22.907Z,99571.84
2022-10-28T20:53:50.951Z,99560.03
2022-10-28T20:56:21.470Z,99557.47
2022-10-28T20:58:48.654Z,99564.19
2022-10-28T21:01:18.799Z,99554.00
2022-10-28T21:03:46.825Z,99542.19
2022-10-28T21:06:16.165Z,99535.22
2022-10-28T21:08:43.645Z,99539.25
2022-10-28T21:11:13.278Z,99535.91
2022-10-28T21:13:42.722Z,99531.88
2022-10-28T21:16:11.929Z,99516.34
2022-10-28T21:18:39.787Z,99538.72
2022-10-28T21:21:07.566Z,99540.31
2022-10-28T21:23:34.856Z,99531.88
2022-10-28T21:26:04.230Z,99534.28
2022-10-28T21:28:33.034Z,99532.81
2022-10-28T21:31:02.635Z,99537.66
2022-10-28T21:33:30.160Z,99538.16
2022-10-28T21:35:58.844Z,99534.28
2022-10-28T21:38:28.278Z,99529.31
2022-10-28T21:40:59.799Z,99530.91
2022-10-28T21:43:28.889Z,99519.28
2022-10-28T21:45:56.303Z,99520.06
2022-10-28T21:48:26.510Z,99522.34
2022-10-28T21:50:54.999Z,99520.84
2022-10-28T21:53:22.865Z,99522.34
2022-10-28T21:55:51.329Z,99512.28
2022-10-28T21:58:19.322Z,99508.00
2022-10-28T22:00:46.830Z,99508.00
2022-10-28T22:03:14.466Z,99498.47
2022-10-28T22:05:50.776Z,99498.06
2022-10-28T22:08:18.107Z,99503.28
2022-10-28T22:10:45.349Z,99498.69
2022-10-28T22:13:12.736Z,99504.59
2022-10-28T22:15:39.949Z,99503.28
2022-10-28T22:18:07.212Z,99507.03
2022-10-28T22:20:34.437Z,99509.16
2022-10-28T22:23:03.131Z,99503.53
2022-10-28T22:25:30.324Z,99502.75
2022-10-28T22:27:57.512Z,99501.66
2022-10-28T22:30:24.813Z,99501.50
2022-10-28T22:32:52.321Z,99503.94
2022-10-28T22:35:19.775Z,99495.19
2022-10-28T22:37:47.219Z,99483.38
2022-10-28T22:40:15.993Z,99472.00
2022-10-28T22:42:43.266Z,99477.09
2022-10-28T22:45:10.721Z,99487.94
2022-10-28T22:47:37.979Z,99479.34
2022-10-28T22:50:05.949Z,99480.00
2022-10-28T22:52:33.260Z,99475.56
2022-10-28T22:55:00.491Z,99476.25
2022-10-28T22:57:29.258Z,99466.69
2022-10-28T22:59:56.619Z,99467.78
2022-10-28T23:02:24.140Z,99472.72
2022-10-28T23:04:51.557Z,99467.25
2022-10-28T23:07:18.819Z,99466.97
2022-10-28T23:09:46.192Z,99469.13
2022-10-28T23:12:13.808Z,99462.41
2022-10-28T23:14:42.480Z,99461.59
2022-10-28T23:17:09.729Z,99459.22
2022-10-28T23:19:36.917Z,99453.94
2022-10-28T23:22:04.373Z,99453.00
2022-10-28T23:24:31.624Z,99453.00
2022-10-28T23:26:59.096Z,99452.72
2022-10-28T23:29:26.371Z,99451.94
2022-10-28T23:31:55.134Z,99443.63
2022-10-28T23:34:22.658Z,99453.56
2022-10-28T23:36:54.125Z,99447.09
2022-10-28T23:39:21.960Z,99448.72
2022-10-28T23:41:49.563Z,99442.69
2022-10-28T23:44:17.142Z,99457.59
2022-10-28T23:46:44.513Z,99461.88
2022-10-28T23:49:13.175Z,99452.47
2022-10-28T23:51:40.453Z,99452.34
2022-10-28T23:54:07.836Z,99453.81
2022-10-28T23:56:35.116Z,99454.91
2022-10-28T23:59:02.399Z,99442.00
